Time;durP1;ratioP1;P1;durP2;ratioP2;P2;SDS_P1;SDS_P2;PMS_P1;PMS_P2;Temp;Humidity;BMP_temperature;BMP_pressure;BME280_temperature;BME280_humidity;BME280_pressure;Samples;Min_cycle;Max_cycle;Signal;HPM_P1;HPM_P2
2021/03/18 00:01:49;;;;;;;10.98;8.57;;;2.40;90.50;;;;;;5042351;28;20048;-60
2021/03/18 00:04:17;;;;;;;11.45;8.73;;;2.60;90.40;;;;;;5062806;28;20025;-60
2021/03/18 00:06:44;;;;;;;12.20;9.32;;;2.40;90.60;;;;;;5059722;28;20518;-59
2021/03/18 00:09:13;;;;;;;13.10;9.57;;;2.40;90.80;;;;;;5065343;28;20035;-62
2021/03/18 00:11:41;;;;;;;11.55;8.85;;;2.30;91.20;;;;;;5062899;28;20119;-57
2021/03/18 00:14:12;;;;;;;11.02;8.95;;;2.50;90.90;;;;;;5062712;28;20043;-58
2021/03/18 00:16:38;;;;;;;9.68;7.70;;;2.50;90.50;;;;;;5064171;28;20028;-60
2021/03/18 00:19:04;;;;;;;12.55;8.68;;;2.70;90.30;;;;;;5065609;28;20029;-60
2021/03/18 00:21:30;;;;;;;11.52;8.82;;;2.60;90.20;;;;;;5061996;28;20028;-60
2021/03/18 00:23:55;;;;;;;10.57;8.25;;;2.70;90.00;;;;;;5062958;28;20028;-58
2021/03/18 00:26:26;;;;;;;10.02;8.32;;;2.60;90.20;;;;;;5065424;28;20088;-60
2021/03/18 00:28:52;;;;;;;9.57;8.05;;;2.50;90.30;;;;;;5042517;28;20103;-58
2021/03/18 00:31:25;;;;;;;10.27;8.63;;;2.60;90.20;;;;;;5063064;28;20035;-59
2021/03/18 00:33:52;;;;;;;12.18;9.18;;;2.50;90.20;;;;;;5062023;28;20059;-60
2021/03/18 00:36:18;;;;;;;10.43;8.68;;;2.40;90.60;;;;;;5064931;28;20032;-59
2021/03/18 00:38:45;;;;;;;11.30;9.00;;;2.50;90.40;;;;;;5044235;28;20028;-59
2021/03/18 00:41:12;;;;;;;10.73;9.05;;;2.50;90.30;;;;;;5060536;28;20040;-59
2021/03/18 00:43:38;;;;;;;11.23;8.65;;;2.60;90.30;;;;;;5059007;28;20032;-57
2021/03/18 00:46:05;;;;;;;10.00;8.93;;;2.70;90.00;;;;;;5056591;28;20115;-59
2021/03/18 00:48:32;;;;;;;11.48;9.00;;;2.70;90.00;;;;;;5057057;28;20032;-57
2021/03/18 00:51:01;;;;;;;10.40;8.30;;;2.70;89.70;;;;;;5059135;28;20475;-58
2021/03/18 00:53:36;;;;;;;17.70;12.38;;;2.70;89.40;;;;;;5061698;28;20125;-56
2021/03/18 00:56:08;;;;;;;14.10;10.52;;;2.70;89.80;;;;;;5064548;28;20507;-58
2021/03/18 00:58:35;;;;;;;11.90;9.07;;;2.50;90.10;;;;;;5060372;28;20044;-59
2021/03/18 01:01:03;;;;;;;9.98;8.85;;;2.60;90.10;;;;;;5069375;28;20029;-58
2021/03/18 01:03:32;;;;;;;10.38;9.25;;;2.50;90.00;;;;;;5068232;28;20021;-57
2021/03/18 01:06:08;;;;;;;10.60;8.88;;;2.60;90.10;;;;;;5066288;28;20542;-58
2021/03/18 01:08:35;;;;;;;13.02;9.52;;;2.60;90.20;;;;;;5069546;28;20029;-57
2021/03/18 01:11:15;;;;;;;11.10;8.77;;;2.60;90.20;;;;;;5056246;28;20032;-59
2021/03/18 01:13:45;;;;;;;10.25;8.65;;;2.70;89.60;;;;;;5056399;28;20092;-58
2021/03/18 01:16:19;;;;;;;11.00;9.02;;;2.70;89.60;;;;;;5071171;28;20024;-57
2021/03/18 01:18:48;;;;;;;12.18;10.07;;;2.70;89.60;;;;;;5072165;28;20039;-58
2021/03/18 01:21:16;;;;;;;11.15;9.40;;;2.70;89.60;;;;;;5072945;28;20120;-59
2021/03/18 01:23:41;;;;;;;10.73;9.05;;;2.70;89.30;;;;;;5070164;28;20033;-57
2021/03/18 01:26:08;;;;;;;12.13;9.18;;;2.70;89.60;;;;;;5069051;28;20037;-60
2021/03/18 01:28:34;;;;;;;12.32;10.50;;;2.70;89.40;;;;;;5074521;28;20542;-57
2021/03/18 01:31:01;;;;;;;9.88;8.32;;;2.60;89.00;;;;;;5072427;28;20031;-58
2021/03/18 01:33:27;;;;;;;11.95;10.43;;;2.60;89.70;;;;;;5050258;28;20067;-56
2021/03/18 01:35:53;;;;;;;11.48;9.45;;;2.60;89.60;;;;;;5068239;28;20486;-59
2021/03/18 01:38:19;;;;;;;10.25;8.63;;;2.60;89.70;;;;;;5066140;28;20041;-55
2021/03/18 01:40:45;;;;;;;11.55;9.82;;;2.60;89.50;;;;;;5067725;28;20044;-59
2021/03/18 01:43:11;;;;;;;12.70;9.90;;;2.60;89.50;;;;;;5055441;28;20039;-58
2021/03/18 01:45:38;;;;;;;12.40;10.73;;;2.70;88.80;;;;;;5069325;28;20033;-56
2021/03/18 01:48:04;;;;;;;12.52;10.18;;;2.60;89.00;;;;;;5071814;28;20139;-59
2021/03/18 01:50:32;;;;;;;12.32;10.15;;;2.40;90.10;;;;;;5049613;28;20490;-58
2021/03/18 01:52:58;;;;;;;13.20;10.05;;;2.30;90.20;;;;;;5048550;28;20056;-59
2021/03/18 01:55:36;;;;;;;12.77;10.20;;;2.40;90.10;;;;;;5074386;28;20036;-59
2021/03/18 01:58:03;;;;;;;14.57;10.90;;;2.30;90.30;;;;;;5069322;28;20032;-57
2021/03/18 02:00:29;;;;;;;13.07;9.70;;;2.40;90.20;;;;;;5068474;28;20036;-59
2021/03/18 02:02:56;;;;;;;15.30;10.98;;;2.40;90.00;;;;;;5071301;28;20032;-60
2021/03/18 02:05:22;;;;;;;13.63;10.90;;;2.30;90.30;;;;;;5069915;28;20098;-59
2021/03/18 02:07:51;;;;;;;14.18;10.23;;;2.30;90.40;;;;;;5072150;28;20033;-60
2021/03/18 02:10:17;;;;;;;12.43;10.60;;;2.40;90.20;;;;;;5050440;28;20494;-60
2021/03/18 02:12:43;;;;;;;13.43;10.95;;;2.50;90.10;;;;;;5068130;28;20044;-59
2021/03/18 02:15:09;;;;;;;16.58;12.48;;;2.40;90.20;;;;;;5055516;28;20075;-59
2021/03/18 02:17:50;;;;;;;13.93;12.05;;;2.50;90.00;;;;;;5065053;28;20492;-57
2021/03/18 02:20:42;;;;;;;14.93;11.85;;;2.30;90.50;;;;;;5070157;28;20123;-58
2021/03/18 02:23:37;;;;;;;15.60;11.90;;;2.40;90.30;;;;;;5070214;28;20395;-60
2021/03/18 02:26:30;;;;;;;16.73;12.15;;;2.50;90.20;;;;;;5065211;28;20052;-59
2021/03/18 02:29:06;;;;;;;15.63;11.85;;;2.30;90.40;;;;;;5065917;28;20051;-59
2021/03/18 02:31:46;;;;;;;15.20;12.07;;;2.20;90.60;;;;;;5073399;28;20068;-59
2021/03/18 02:34:38;;;;;;;16.10;12.05;;;2.30;90.50;;;;;;5053856;28;20028;-60
2021/03/18 02:37:08;;;;;;;15.25;12.23;;;2.30;90.40;;;;;;5063806;28;20052;-59
2021/03/18 02:39:49;;;;;;;17.60;12.32;;;2.30;90.30;;;;;;5065853;28;20028;-60
2021/03/18 02:42:20;;;;;;;16.30;12.07;;;2.20;90.50;;;;;;5064909;28;20076;-58
2021/03/18 02:44:51;;;;;;;14.82;12.52;;;2.30;90.30;;;;;;5062234;28;20077;-60
2021/03/18 02:47:19;;;;;;;19.90;12.45;;;2.30;90.30;;;;;;5045749;28;20116;-60
2021/03/18 02:49:46;;;;;;;14.52;12.48;;;2.40;90.10;;;;;;5067646;28;20060;-60
2021/03/18 02:52:17;;;;;;;16.90;12.65;;;2.40;90.10;;;;;;5071065;28;20024;-60
2021/03/18 02:54:44;;;;;;;15.20;11.88;;;2.40;90.00;;;;;;5019499;28;20481;-60
2021/03/18 02:57:11;;;;;;;15.80;11.65;;;2.30;90.20;;;;;;5071645;28;20085;-60
2021/03/18 02:59:40;;;;;;;17.80;13.50;;;2.30;90.00;;;;;;5034679;28;20049;-59
2021/03/18 03:02:11;;;;;;;16.40;12.68;;;2.20;90.40;;;;;;5064905;28;20036;-60
2021/03/18 03:04:39;;;;;;;17.35;13.63;;;2.30;90.30;;;;;;5062222;28;20028;-60
2021/03/18 03:07:06;;;;;;;16.15;12.05;;;2.30;90.30;;;;;;5075544;28;20531;-58
2021/03/18 03:09:33;;;;;;;18.00;12.85;;;2.30;90.20;;;;;;5071867;28;20048;-58
2021/03/18 03:12:00;;;;;;;16.55;12.73;;;2.20;90.20;;;;;;5074077;28;20085;-58
2021/03/18 03:14:26;;;;;;;15.13;12.00;;;2.20;90.60;;;;;;5074771;28;20044;-56
2021/03/18 03:16:52;;;;;;;16.10;13.15;;;2.20;90.30;;;;;;5073698;28;20054;-58
2021/03/18 03:19:18;;;;;;;18.23;12.63;;;2.30;90.20;;;;;;5064682;28;20033;-55
2021/03/18 03:21:45;;;;;;;18.02;12.20;;;2.30;90.00;;;;;;5072011;28;20034;-59
2021/03/18 03:24:12;;;;;;;16.58;13.25;;;2.30;90.10;;;;;;5072838;28;20040;-59
2021/03/18 03:26:39;;;;;;;15.15;12.38;;;2.20;90.10;;;;;;5073027;28;20063;-59
2021/03/18 03:29:05;;;;;;;18.52;13.32;;;2.10;90.60;;;;;;5071042;28;20025;-60
2021/03/18 03:31:31;;;;;;;16.27;13.30;;;2.20;90.60;;;;;;5052082;28;20679;-58
2021/03/18 03:33:57;;;;;;;18.55;14.32;;;2.20;90.10;;;;;;5071257;28;20119;-60
2021/03/18 03:36:23;;;;;;;22.15;14.70;;;2.20;90.20;;;;;;5054685;28;20131;-59
2021/03/18 03:38:49;;;;;;;19.13;14.45;;;2.10;90.20;;;;;;5071950;28;20135;-59
2021/03/18 03:41:15;;;;;;;22.48;15.55;;;2.20;90.30;;;;;;5075990;28;20036;-59
2021/03/18 03:43:41;;;;;;;20.23;14.73;;;2.00;90.40;;;;;;5072105;28;20036;-59
2021/03/18 03:46:06;;;;;;;19.50;15.15;;;2.00;90.60;;;;;;5071339;28;20081;-59
2021/03/18 03:48:33;;;;;;;19.50;15.07;;;2.00;90.30;;;;;;5054117;28;20503;-60
2021/03/18 03:51:01;;;;;;;23.50;15.48;;;2.00;90.40;;;;;;5073093;28;20052;-60
2021/03/18 03:53:41;;;;;;;20.10;15.60;;;2.00;90.60;;;;;;5075213;28;20036;-59
2021/03/18 03:56:19;;;;;;;22.60;16.25;;;1.90;90.60;;;;;;5072508;28;20085;-59
2021/03/18 03:58:58;;;;;;;22.85;16.48;;;1.80;90.90;;;;;;5071226;28;20037;-58
2021/03/18 04:01:37;;;;;;;24.52;16.90;;;1.70;90.90;;;;;;5071670;28;20492;-60
2021/03/18 04:04:07;;;;;;;22.17;16.33;;;1.60;91.50;;;;;;5080235;28;20055;-59
2021/03/18 04:06:37;;;;;;;24.52;17.35;;;1.60;91.40;;;;;;5070149;28;20051;-60
2021/03/18 04:09:06;;;;;;;25.42;17.45;;;1.50;91.60;;;;;;5070612;28;20029;-60
2021/03/18 04:11:39;;;;;;;28.00;17.65;;;1.50;91.90;;;;;;5069882;28;20040;-60
2021/03/18 04:14:07;;;;;;;27.90;19.42;;;1.60;91.60;;;;;;5071766;28;20455;-59
2021/03/18 04:16:36;;;;;;;29.80;18.85;;;1.60;91.70;;;;;;5070324;28;20181;-59
2021/03/18 04:19:03;;;;;;;30.35;19.52;;;1.50;91.80;;;;;;5070840;28;20128;-62
2021/03/18 04:21:32;;;;;;;26.15;18.38;;;1.60;91.70;;;;;;5070427;28;20087;-60
2021/03/18 04:24:01;;;;;;;29.08;19.13;;;1.40;92.20;;;;;;5071553;28;20089;-60
2021/03/18 04:26:33;;;;;;;31.17;19.35;;;1.40;92.40;;;;;;5067348;28;20094;-56
2021/03/18 04:29:00;;;;;;;27.13;19.50;;;1.50;92.10;;;;;;5082452;28;20036;-58
2021/03/18 04:31:27;;;;;;;26.67;18.42;;;1.50;92.00;;;;;;5070973;28;20037;-59
2021/03/18 04:33:53;;;;;;;28.38;20.52;;;1.60;91.50;;;;;;5073410;28;20048;-61
2021/03/18 04:36:19;;;;;;;28.70;18.95;;;1.70;91.50;;;;;;5071708;28;20107;-58
2021/03/18 04:38:45;;;;;;;28.92;19.10;;;1.70;91.30;;;;;;5074571;28;20044;-58
2021/03/18 04:41:11;;;;;;;26.05;18.83;;;1.90;90.80;;;;;;5071991;28;20056;-60
2021/03/18 04:43:38;;;;;;;26.77;18.52;;;1.80;91.40;;;;;;5072924;28;20055;-59
2021/03/18 04:46:06;;;;;;;24.95;19.20;;;1.70;91.40;;;;;;5069737;28;20055;-60
2021/03/18 04:48:34;;;;;;;24.13;17.30;;;1.70;91.30;;;;;;5071793;28;20036;-60
2021/03/18 04:51:00;;;;;;;25.50;17.17;;;1.80;91.30;;;;;;5072260;28;20111;-59
2021/03/18 04:53:26;;;;;;;26.58;19.60;;;1.70;91.30;;;;;;5053388;28;20044;-60
2021/03/18 04:55:51;;;;;;;31.73;19.08;;;1.70;91.70;;;;;;5069338;28;20056;-60
2021/03/18 04:58:20;;;;;;;28.70;19.70;;;1.70;91.60;;;;;;5072763;28;20032;-58
2021/03/18 05:00:47;;;;;;;28.60;18.88;;;1.80;91.30;;;;;;5070312;28;20435;-60
2021/03/18 05:03:14;;;;;;;26.52;19.25;;;1.80;91.00;;;;;;5069846;28;20037;-60
2021/03/18 05:05:39;;;;;;;27.08;19.60;;;1.70;91.50;;;;;;5090527;28;20081;-58
2021/03/18 05:08:06;;;;;;;28.17;19.45;;;1.80;91.40;;;;;;5060317;28;20044;-60
2021/03/18 05:10:34;;;;;;;30.38;20.08;;;1.90;91.20;;;;;;5073193;28;20055;-60
2021/03/18 05:13:04;;;;;;;28.35;19.40;;;1.80;91.20;;;;;;5080199;28;20051;-59
2021/03/18 05:15:31;;;;;;;28.90;19.48;;;1.80;90.80;;;;;;5070605;28;20048;-59
2021/03/18 05:17:57;;;;;;;26.23;18.88;;;1.70;91.30;;;;;;5075843;28;20555;-58
2021/03/18 05:20:24;;;;;;;29.25;20.13;;;1.80;91.30;;;;;;5048038;28;20419;-60
2021/03/18 05:22:51;;;;;;;28.98;20.83;;;1.80;91.00;;;;;;5052178;28;20530;-60
2021/03/18 05:25:30;;;;;;;30.10;21.98;;;1.70;91.20;;;;;;5056478;28;20072;-59
2021/03/18 05:27:57;;;;;;;32.10;21.90;;;1.50;91.60;;;;;;5069600;28;20062;-59
2021/03/18 05:30:23;;;;;;;30.25;21.15;;;1.60;91.70;;;;;;5070517;28;20064;-58
2021/03/18 05:32:49;;;;;;;28.58;21.02;;;1.90;91.10;;;;;;5071854;28;20045;-58
2021/03/18 05:35:15;;;;;;;31.05;19.73;;;1.90;90.90;;;;;;5070590;28;20364;-60
2021/03/18 05:37:41;;;;;;;29.55;21.27;;;2.00;90.80;;;;;;5069773;28;20036;-59
2021/03/18 05:40:10;;;;;;;30.77;21.30;;;1.90;90.70;;;;;;5070617;28;20040;-59
2021/03/18 05:42:37;;;;;;;33.90;21.55;;;1.90;91.10;;;;;;5070916;28;20040;-59
2021/03/18 05:45:05;;;;;;;27.52;21.50;;;1.90;91.10;;;;;;5070861;28;20071;-61
2021/03/18 05:47:32;;;;;;;31.58;20.98;;;2.00;91.10;;;;;;5070037;28;20041;-58
2021/03/18 05:49:58;;;;;;;33.75;21.20;;;2.00;91.00;;;;;;5051668;28;20033;-59
2021/03/18 05:52:26;;;;;;;25.67;19.48;;;2.00;90.90;;;;;;5071488;28;20086;-60
2021/03/18 05:54:53;;;;;;;30.73;21.08;;;2.10;90.80;;;;;;5071020;28;20062;-59
2021/03/18 05:57:19;;;;;;;36.78;21.38;;;2.20;90.60;;;;;;5082526;28;20087;-57
2021/03/18 05:59:46;;;;;;;29.40;20.67;;;2.10;90.50;;;;;;5075141;28;20056;-59
2021/03/18 06:02:13;;;;;;;34.95;21.70;;;2.20;90.40;;;;;;5076773;28;20025;-59
2021/03/18 06:04:39;;;;;;;29.70;21.42;;;2.20;90.40;;;;;;5058968;28;20098;-58
2021/03/18 06:07:06;;;;;;;41.85;21.05;;;2.20;90.40;;;;;;5070252;28;20053;-60
2021/03/18 06:09:33;;;;;;;28.45;19.85;;;2.30;90.30;;;;;;5054530;28;20040;-58
2021/03/18 06:11:59;;;;;;;28.70;20.85;;;2.30;90.10;;;;;;5072599;28;20028;-56
2021/03/18 06:14:25;;;;;;;30.63;21.25;;;2.30;90.10;;;;;;5072959;28;20048;-55
2021/03/18 06:16:53;;;;;;;27.08;20.60;;;2.30;90.00;;;;;;5055465;28;20067;-57
2021/03/18 06:19:18;;;;;;;28.73;20.58;;;2.40;89.70;;;;;;5075592;28;20033;-58
2021/03/18 06:21:51;;;;;;;30.83;21.85;;;2.40;89.90;;;;;;5056317;28;20056;-60
2021/03/18 06:24:18;;;;;;;26.40;20.30;;;2.40;89.80;;;;;;5075899;28;20110;-60
2021/03/18 06:26:44;;;;;;;29.60;21.60;;;2.50;89.40;;;;;;5074836;28;20043;-61
2021/03/18 06:29:34;;;;;;;32.92;23.00;;;2.60;89.20;;;;;;5073858;28;20086;-58
2021/03/18 06:32:23;;;;;;;37.20;24.83;;;2.50;89.10;;;;;;5063380;28;20369;-60
2021/03/18 06:34:49;;;;;;;50.42;24.40;;;2.60;89.00;;;;;;5075568;28;20040;-59
2021/03/18 06:37:35;;;;;;;35.63;22.75;;;2.60;89.10;;;;;;5074510;28;20043;-60
2021/03/18 06:40:19;;;;;;;33.33;22.40;;;2.80;88.80;;;;;;5075758;28;20032;-60
2021/03/18 06:42:58;;;;;;;30.25;21.17;;;2.80;88.40;;;;;;5073988;28;20059;-58
2021/03/18 06:45:32;;;;;;;29.85;21.80;;;2.70;89.40;;;;;;5077566;28;20040;-60
2021/03/18 06:48:09;;;;;;;29.05;21.88;;;2.50;90.10;;;;;;5074824;28;20036;-58
2021/03/18 06:50:38;;;;;;;31.98;21.77;;;2.40;90.30;;;;;;5087829;28;20093;-57
2021/03/18 06:53:21;;;;;;;30.95;21.10;;;2.60;89.50;;;;;;5074648;28;20047;-58
2021/03/18 06:55:49;;;;;;;37.10;26.15;;;2.80;88.70;;;;;;5072979;28;20567;-59
2021/03/18 06:58:14;;;;;;;31.92;22.80;;;2.80;89.20;;;;;;5071631;28;20413;-57
2021/03/18 07:00:41;;;;;;;31.95;21.45;;;2.80;88.90;;;;;;5055622;28;20040;-59
2021/03/18 07:03:09;;;;;;;30.55;21.77;;;2.90;88.50;;;;;;5072248;28;20039;-60
2021/03/18 07:05:42;;;;;;;29.52;21.95;;;3.00;88.70;;;;;;5036738;28;20044;-60
2021/03/18 07:08:21;;;;;;;30.75;22.30;;;3.00;88.80;;;;;;5072287;28;20517;-61
2021/03/18 07:10:47;;;;;;;28.88;22.35;;;3.10;88.70;;;;;;5074853;28;20032;-59
2021/03/18 07:13:27;;;;;;;29.27;21.38;;;3.10;88.50;;;;;;5054959;28;20340;-58
2021/03/18 07:15:55;;;;;;;33.50;21.38;;;3.20;88.30;;;;;;5074399;28;20102;-58
2021/03/18 07:18:21;;;;;;;30.02;22.20;;;3.10;88.70;;;;;;5047980;28;20550;-59
2021/03/18 07:20:57;;;;;;;29.80;21.45;;;3.00;90.00;;;;;;5070511;28;20048;-60
2021/03/18 07:23:32;;;;;;;33.08;22.90;;;3.10;89.50;;;;;;5072964;28;20078;-58
2021/03/18 07:25:58;;;;;;;38.10;24.70;;;3.20;89.30;;;;;;5071269;28;20067;-59
2021/03/18 07:28:24;;;;;;;32.72;22.15;;;3.30;88.90;;;;;;5071881;28;20491;-59
2021/03/18 07:30:51;;;;;;;32.13;21.30;;;3.20;89.30;;;;;;5071378;28;20044;-59
2021/03/18 07:33:19;;;;;;;29.13;22.02;;;3.40;88.30;;;;;;5070355;28;20025;-59
2021/03/18 07:35:45;;;;;;;32.65;22.85;;;3.40;88.70;;;;;;5072047;28;20128;-59
2021/03/18 07:38:10;;;;;;;29.90;22.92;;;3.30;89.40;;;;;;5053686;28;20064;-58
2021/03/18 07:40:36;;;;;;;30.45;21.50;;;3.40;89.60;;;;;;5072390;28;20045;-60
2021/03/18 07:43:02;;;;;;;32.25;21.70;;;3.50;89.10;;;;;;5092280;28;20051;-59
2021/03/18 07:45:28;;;;;;;29.00;21.88;;;3.70;88.40;;;;;;5064255;28;20040;-59
2021/03/18 07:47:54;;;;;;;27.08;20.20;;;3.80;87.90;;;;;;5085167;28;20032;-59
2021/03/18 07:50:36;;;;;;;31.88;21.60;;;4.00;87.40;;;;;;5072419;28;20035;-60
2021/03/18 07:53:02;;;;;;;27.90;20.83;;;4.10;87.00;;;;;;5072111;28;20135;-57
2021/03/18 07:55:31;;;;;;;28.05;20.73;;;4.20;85.80;;;;;;5071862;28;20036;-61
2021/03/18 07:57:58;;;;;;;26.65;19.08;;;4.00;87.60;;;;;;5070870;28;20036;-60
2021/03/18 08:00:24;;;;;;;27.13;19.27;;;4.10;85.70;;;;;;5071062;28;20094;-59
2021/03/18 08:02:51;;;;;;;26.55;19.55;;;4.10;85.90;;;;;;5071601;28;20145;-61
2021/03/18 08:05:40;;;;;;;24.38;19.10;;;4.40;85.20;;;;;;5042121;28;20037;-59
2021/03/18 08:08:07;;;;;;;28.63;20.50;;;4.20;85.30;;;;;;5065598;28;20522;-59
2021/03/18 08:10:38;;;;;;;26.58;19.17;;;4.10;86.70;;;;;;5070496;28;20036;-59
2021/03/18 08:13:04;;;;;;;25.70;18.60;;;4.40;84.90;;;;;;5072262;28;20036;-59
2021/03/18 08:15:43;;;;;;;25.40;19.20;;;4.30;85.10;;;;;;5071632;28;20044;-57
2021/03/18 08:18:15;;;;;;;25.55;18.40;;;4.10;85.70;;;;;;5051143;28;20037;-57
2021/03/18 08:20:41;;;;;;;23.08;17.77;;;4.20;85.40;;;;;;5071935;28;20386;-58
2021/03/18 08:23:27;;;;;;;25.42;18.52;;;4.20;85.70;;;;;;5072321;28;20119;-59
2021/03/18 08:26:11;;;;;;;25.10;18.30;;;4.30;85.50;;;;;;5069089;28;20566;-58
2021/03/18 08:28:46;;;;;;;23.55;17.52;;;4.40;85.20;;;;;;5066414;28;20024;-58
2021/03/18 08:31:17;;;;;;;23.70;16.38;;;4.60;84.40;;;;;;5070004;28;20016;-58
2021/03/18 08:33:52;;;;;;;23.17;16.17;;;4.50;84.00;;;;;;5063855;28;20040;-59
2021/03/18 08:36:22;;;;;;;22.65;16.15;;;4.40;84.30;;;;;;5067563;28;20055;-60
2021/03/18 08:38:57;;;;;;;22.52;16.25;;;4.60;83.30;;;;;;5064285;28;20520;-61
2021/03/18 08:41:31;;;;;;;20.75;15.93;;;4.70;83.20;;;;;;5065339;28;20033;-59
2021/03/18 08:44:09;;;;;;;;;;;4.90;82.40;;;;;;5061510;28;20024;-59
2021/03/18 08:46:50;;;;;;;21.88;14.77;;;4.90;81.90;;;;;;5069427;28;19912;-60
2021/03/18 08:49:22;;;;;;;19.35;13.93;;;4.90;82.00;;;;;;5062958;28;20093;-58
2021/03/18 08:51:49;;;;;;;26.92;14.45;;;5.10;81.80;;;;;;5030926;28;20044;-59
2021/03/18 08:54:36;;;;;;;20.85;14.65;;;5.30;81.00;;;;;;5064361;28;20033;-60
2021/03/18 08:57:32;;;;;;;22.33;14.93;;;5.30;81.10;;;;;;5063000;28;20016;-59
2021/03/18 09:00:07;;;;;;;21.80;14.45;;;5.40;80.90;;;;;;5064338;28;20123;-60
2021/03/18 09:02:38;;;;;;;19.77;15.00;;;5.50;79.90;;;;;;5069240;28;20146;-59
2021/03/18 09:05:10;;;;;;;17.13;12.77;;;5.50;80.50;;;;;;5063187;28;20048;-59
2021/03/18 09:07:36;;;;;;;17.13;13.85;;;5.40;80.10;;;;;;5066499;28;20044;-56
2021/03/18 09:10:09;;;;;;;19.50;13.18;;;5.60;79.50;;;;;;5063569;28;20037;-58
2021/03/18 09:13:14;;;;;;;19.38;14.65;;;5.90;78.50;;;;;;5063002;28;20368;-60
2021/03/18 09:15:44;;;;;;;36.53;16.95;;;5.70;79.90;;;;;;5056616;28;20487;-59
2021/03/18 09:18:30;;;;;;;20.40;16.98;;;5.80;80.40;;;;;;5067309;28;20053;-61
2021/03/18 09:21:08;;;;;;;24.33;17.00;;;5.40;81.30;;;;;;5071346;28;20032;-58
2021/03/18 09:23:36;;;;;;;20.33;16.08;;;5.20;82.40;;;;;;5072032;28;20044;-58
2021/03/18 09:26:05;;;;;;;21.45;16.15;;;5.60;81.20;;;;;;5045944;28;20041;-58
2021/03/18 09:28:43;;;;;;;20.67;16.35;;;5.70;80.40;;;;;;5040920;28;20106;-60
2021/03/18 09:31:09;;;;;;;20.17;15.65;;;6.10;80.00;;;;;;5072166;28;20037;-56
2021/03/18 09:33:40;;;;;;;18.33;13.73;;;6.30;78.60;;;;;;5044161;28;20098;-58
2021/03/18 09:36:19;;;;;;;15.57;12.13;;;6.50;76.60;;;;;;5068831;28;20094;-54
2021/03/18 09:39:11;;;;;;;15.85;12.50;;;6.30;75.70;;;;;;5060923;28;20031;-58
2021/03/18 09:41:40;;;;;;;16.83;11.27;;;6.20;75.00;;;;;;5068796;28;20028;-55
2021/03/18 09:44:10;;;;;;;18.02;12.80;;;6.40;75.20;;;;;;5068101;28;20028;-56
2021/03/18 09:46:37;;;;;;;19.15;12.85;;;6.60;75.10;;;;;;5065434;28;20083;-60
2021/03/18 09:49:04;;;;;;;15.57;11.60;;;6.50;75.50;;;;;;5064279;28;20029;-58
2021/03/18 09:51:35;;;;;;;12.00;9.73;;;6.90;74.00;;;;;;5065482;28;20394;-58
2021/03/18 09:54:05;;;;;;;12.38;10.05;;;7.00;70.80;;;;;;5056861;28;20064;-59
2021/03/18 09:56:38;;;;;;;13.65;9.88;;;7.00;69.70;;;;;;5075299;28;20047;-60
2021/03/18 09:59:06;;;;;;;12.07;10.15;;;7.10;69.40;;;;;;5085267;28;20040;-56
2021/03/18 10:01:32;;;;;;;12.57;10.18;;;7.10;70.00;;;;;;5080541;28;20040;-57
2021/03/18 10:04:06;;;;;;;11.48;9.40;;;7.30;69.60;;;;;;5074989;28;20101;-57
2021/03/18 10:06:47;;;;;;;12.57;8.88;;;7.00;69.00;;;;;;5071812;28;20049;-60
2021/03/18 10:09:30;;;;;;;11.68;9.40;;;7.10;69.80;;;;;;5066927;28;20127;-59
2021/03/18 10:11:56;;;;;;;13.43;9.57;;;7.00;71.50;;;;;;5068451;28;20395;-59
2021/03/18 10:14:24;;;;;;;10.95;8.57;;;7.20;70.70;;;;;;5065552;28;20024;-57
2021/03/18 10:16:50;;;;;;;13.32;10.02;;;7.20;69.60;;;;;;5066733;28;20035;-56
2021/03/18 10:19:18;;;;;;;12.02;10.05;;;6.80;70.50;;;;;;5060748;28;20036;-58
2021/03/18 10:21:45;;;;;;;14.00;10.35;;;6.70;70.90;;;;;;5057180;28;20033;-58
2021/03/18 10:24:13;;;;;;;14.02;11.07;;;6.70;71.30;;;;;;5074338;28;20508;-58
2021/03/18 10:26:39;;;;;;;12.43;9.85;;;6.50;72.30;;;;;;5073453;28;20037;-58
2021/03/18 10:29:07;;;;;;;13.52;10.48;;;6.70;71.60;;;;;;5073994;28;20028;-58
2021/03/18 10:31:33;;;;;;;14.20;10.38;;;7.00;71.50;;;;;;5073931;28;20032;-55
2021/03/18 10:34:00;;;;;;;13.70;9.68;;;6.90;70.80;;;;;;5070150;28;20036;-58
2021/03/18 10:36:46;;;;;;;12.63;10.05;;;6.90;71.60;;;;;;5071213;28;20041;-56
2021/03/18 10:39:13;;;;;;;11.70;9.60;;;7.10;70.90;;;;;;5064078;28;20108;-56
2021/03/18 10:41:53;;;;;;;12.68;10.85;;;7.30;70.50;;;;;;5063593;28;20028;-57
2021/03/18 10:44:20;;;;;;;16.55;10.82;;;7.50;69.80;;;;;;5065876;28;20090;-58
2021/03/18 10:46:46;;;;;;;14.75;10.70;;;7.30;70.20;;;;;;5062897;28;20029;-58
2021/03/18 10:49:13;;;;;;;13.20;10.38;;;7.20;71.10;;;;;;5045726;28;20564;-58
2021/03/18 10:51:51;;;;;;;13.73;10.02;;;7.20;70.70;;;;;;5065836;28;20029;-58
2021/03/18 10:54:22;;;;;;;14.18;10.60;;;7.30;70.00;;;;;;5071690;28;20108;-56
2021/03/18 10:56:49;;;;;;;15.23;11.65;;;7.10;69.70;;;;;;5074112;28;20039;-57
2021/03/18 10:59:16;;;;;;;15.02;10.13;;;7.10;70.10;;;;;;5071065;28;20037;-58
2021/03/18 11:01:42;;;;;;;12.90;10.23;;;7.10;69.70;;;;;;5063852;28;20060;-58
2021/03/18 11:04:08;;;;;;;15.32;10.48;;;6.90;70.30;;;;;;5053963;28;20040;-58
2021/03/18 11:06:48;;;;;;;12.48;10.13;;;6.70;71.00;;;;;;5069146;28;20091;-59
2021/03/18 11:09:15;;;;;;;11.20;9.65;;;6.80;70.50;;;;;;5073190;28;20056;-58
2021/03/18 11:11:55;;;;;;;12.00;9.15;;;7.00;69.80;;;;;;5072678;28;20033;-60
2021/03/18 11:14:21;;;;;;;13.40;9.73;;;7.00;69.60;;;;;;5050634;28;20079;-58
2021/03/18 11:16:46;;;;;;;12.18;8.57;;;7.20;69.10;;;;;;5069758;28;20060;-56
2021/03/18 11:19:14;;;;;;;12.52;10.18;;;7.30;69.20;;;;;;5069118;28;20032;-57
2021/03/18 11:21:43;;;;;;;13.65;10.55;;;7.40;68.70;;;;;;5065599;28;20047;-59
2021/03/18 11:24:21;;;;;;;14.98;11.35;;;7.40;69.50;;;;;;5062331;28;20041;-59
2021/03/18 11:26:50;;;;;;;15.02;11.77;;;7.10;70.90;;;;;;5067560;28;20037;-54
2021/03/18 11:29:18;;;;;;;15.10;11.38;;;6.90;72.00;;;;;;5060681;28;20407;-58
2021/03/18 11:31:51;;;;;;;13.93;11.50;;;7.10;71.40;;;;;;5065639;28;20503;-57
2021/03/18 11:34:23;;;;;;;12.98;9.85;;;7.40;70.40;;;;;;5036584;28;20369;-59
2021/03/18 11:36:57;;;;;;;13.18;11.20;;;7.60;69.00;;;;;;5055002;28;20496;-58
2021/03/18 11:39:22;;;;;;;13.82;10.75;;;7.60;69.20;;;;;;5052393;28;20421;-55
2021/03/18 11:41:53;;;;;;;12.40;10.23;;;7.60;69.00;;;;;;5066362;28;20156;-56
2021/03/18 11:44:19;;;;;;;13.10;9.10;;;7.70;68.60;;;;;;5073028;28;20036;-55
2021/03/18 11:46:45;;;;;;;11.35;9.48;;;7.50;67.90;;;;;;5072554;28;20377;-55
2021/03/18 11:49:12;;;;;;;11.43;9.48;;;7.40;68.40;;;;;;5054807;28;20026;-57
2021/03/18 11:51:38;;;;;;;14.82;11.43;;;7.40;67.80;;;;;;5069513;28;20070;-56
2021/03/18 11:54:05;;;;;;;13.30;9.98;;;7.10;70.10;;;;;;5072351;28;20399;-55
2021/03/18 11:56:30;;;;;;;13.32;10.68;;;6.60;72.10;;;;;;5072867;28;20025;-56
2021/03/18 11:58:56;;;;;;;19.42;12.93;;;5.70;75.40;;;;;;5072575;28;20032;-59
2021/03/18 12:01:21;;;;;;;18.10;12.13;;;5.30;78.70;;;;;;5072477;28;20056;-58
2021/03/18 12:03:50;;;;;;;15.77;11.30;;;5.10;80.10;;;;;;5073264;28;20068;-60
2021/03/18 12:06:15;;;;;;;14.55;9.75;;;4.80;81.10;;;;;;5072050;28;20041;-57
2021/03/18 12:08:41;;;;;;;12.30;9.15;;;4.80;81.70;;;;;;5054511;28;20039;-56
2021/03/18 12:11:07;;;;;;;12.35;8.98;;;4.80;81.60;;;;;;5064589;28;20090;-57
2021/03/18 12:13:33;;;;;;;11.35;8.55;;;4.70;82.00;;;;;;5054171;28;20025;-57
2021/03/18 12:16:00;;;;;;;11.27;8.63;;;4.60;82.60;;;;;;5061358;28;20051;-57
2021/03/18 12:18:26;;;;;;;12.07;8.35;;;4.60;82.90;;;;;;5066249;28;20037;-57
2021/03/18 12:20:53;;;;;;;8.23;6.35;;;4.60;82.60;;;;;;5054193;28;20037;-55
2021/03/18 12:23:19;;;;;;;9.48;6.95;;;4.60;82.20;;;;;;5078702;28;20040;-59
2021/03/18 12:25:44;;;;;;;13.07;9.07;;;4.60;83.10;;;;;;5071542;28;20086;-57
2021/03/18 12:28:10;;;;;;;10.63;7.88;;;4.40;85.30;;;;;;5051772;28;20033;-56
2021/03/18 12:30:36;;;;;;;9.95;7.45;;;4.30;86.20;;;;;;5052045;28;20025;-53
2021/03/18 12:33:01;;;;;;;12.32;7.85;;;4.40;86.00;;;;;;5070604;28;20032;-56
2021/03/18 12:35:27;;;;;;;10.85;8.13;;;4.30;87.30;;;;;;5072024;28;20036;-58
2021/03/18 12:37:53;;;;;;;9.90;7.68;;;3.90;88.90;;;;;;5071170;28;20234;-59
2021/03/18 12:40:21;;;;;;;10.65;7.57;;;3.90;88.90;;;;;;5071712;28;20036;-58
2021/03/18 12:42:47;;;;;;;10.65;7.43;;;4.00;89.10;;;;;;5053854;28;20033;-58
2021/03/18 12:45:15;;;;;;;10.52;7.45;;;4.10;89.30;;;;;;5071832;28;20023;-59
2021/03/18 12:47:41;;;;;;;10.30;7.63;;;4.20;88.50;;;;;;5071196;28;20044;-57
2021/03/18 12:50:10;;;;;;;12.75;7.43;;;4.40;88.40;;;;;;5071624;28;20032;-56
2021/03/18 12:52:37;;;;;;;10.60;7.93;;;4.40;87.70;;;;;;5058956;28;20188;-58
2021/03/18 12:55:04;;;;;;;9.07;7.00;;;4.50;88.20;;;;;;5059168;28;20500;-57